createdAt,value
2022-11-14T00:00:00.840Z,6.3
2022-11-14T00:05:00.786Z,6.3
2022-11-14T00:10:00.773Z,6.3
2022-11-14T00:15:00.607Z,6.2
2022-11-14T00:20:00.872Z,6.2
2022-11-14T00:25:00.807Z,6.2
2022-11-14T00:30:00.836Z,6.2
2022-11-14T00:35:00.773Z,6.2
2022-11-14T00:40:00.799Z,6.2
2022-11-14T00:45:00.786Z,6.3
2022-11-14T00:50:00.792Z,6.3
2022-11-14T00:55:00.877Z,6.3
2022-11-14T01:00:00.828Z,6.3
2022-11-14T01:05:00.814Z,6.3
2022-11-14T01:10:00.607Z,6.3
2022-11-14T01:15:00.837Z,6.2
2022-11-14T01:20:00.797Z,6.2
2022-11-14T01:25:00.767Z,6.2
2022-11-14T01:30:00.815Z,6.2
2022-11-14T01:35:00.838Z,6.1
2022-11-14T01:40:00.808Z,6.1
2022-11-14T01:45:00.815Z,6.1
2022-11-14T01:50:00.799Z,6.1
2022-11-14T01:55:00.802Z,6.1
2022-11-14T02:00:00.778Z,6.1
2022-11-14T02:05:00.765Z,6.1
2022-11-14T02:10:00.832Z,6.1
2022-11-14T02:15:00.802Z,6
2022-11-14T02:20:04.702Z,6
2022-11-14T02:25:00.820Z,6
2022-11-14T02:30:00.744Z,6
2022-11-14T02:35:00.852Z,6
2022-11-14T02:40:00.800Z,6
2022-11-14T02:45:00.790Z,6
2022-11-14T02:50:00.791Z,6
2022-11-14T02:55:00.986Z,6
2022-11-14T03:00:00.805Z,6
2022-11-14T03:05:00.812Z,6.1
2022-11-14T03:10:00.847Z,6.1
2022-11-14T03:15:00.834Z,6.2
2022-11-14T03:20:00.784Z,6.1
2022-11-14T03:25:00.793Z,6.1
2022-11-14T03:30:00.797Z,6.1
2022-11-14T03:35:00.852Z,6.1
2022-11-14T03:40:00.797Z,6.2
2022-11-14T03:45:00.773Z,6.1
2022-11-14T03:50:00.602Z,6.2
2022-11-14T03:55:00.829Z,6.2
2022-11-14T04:00:00.845Z,6.2
2022-11-14T04:05:00.846Z,6.2
2022-11-14T04:10:00.885Z,6.2
2022-11-14T04:15:00.784Z,6.2
2022-11-14T04:20:00.863Z,6.2
2022-11-14T04:25:00.892Z,6.2
2022-11-14T04:30:00.805Z,6.3
2022-11-14T04:35:00.757Z,6.3
2022-11-14T04:40:00.894Z,6.3
2022-11-14T04:45:00.817Z,6.3
2022-11-14T04:50:00.707Z,6.3
2022-11-14T04:55:00.813Z,6.3
2022-11-14T05:00:00.738Z,6.3
2022-11-14T05:05:00.758Z,6.3
2022-11-14T05:10:00.849Z,6.3
2022-11-14T05:15:00.795Z,6.3
2022-11-14T05:20:00.791Z,6.3
2022-11-14T05:25:00.795Z,6.3
2022-11-14T05:30:00.794Z,6.3
2022-11-14T05:35:00.833Z,6.3
2022-11-14T05:40:00.783Z,6.3
2022-11-14T05:45:00.789Z,6.4
2022-11-14T05:50:00.784Z,6.4
2022-11-14T05:55:00.771Z,6.4
2022-11-14T06:00:00.751Z,6.4
2022-11-14T06:05:00.767Z,6.5
2022-11-14T06:10:00.798Z,6.5
2022-11-14T06:15:00.816Z,6.5
2022-11-14T06:20:00.595Z,6.6
2022-11-14T06:25:00.780Z,6.6
2022-11-14T06:30:00.782Z,6.6
2022-11-14T06:35:00.868Z,6.6
2022-11-14T06:40:00.825Z,6.6
2022-11-14T06:45:00.810Z,6.6
2022-11-14T06:50:00.772Z,6.6
2022-11-14T06:55:00.793Z,6.6
2022-11-14T07:00:00.824Z,6.6
2022-11-14T07:05:00.793Z,6.6
2022-11-14T07:10:00.861Z,6.6
2022-11-14T07:15:00.894Z,6.7
2022-11-14T07:20:00.811Z,6.7
2022-11-14T07:25:00.761Z,6.7
2022-11-14T07:30:00.773Z,6.7
2022-11-14T07:35:02.244Z,6.7
2022-11-14T07:40:00.771Z,6.8
2022-11-14T07:45:00.834Z,6.8
2022-11-14T07:50:00.801Z,6.9
2022-11-14T07:55:00.791Z,6.9
2022-11-14T08:00:00.786Z,7
2022-11-14T08:05:00.767Z,7
2022-11-14T08:10:00.873Z,7
2022-11-14T08:15:00.810Z,7
2022-11-14T08:20:00.793Z,7.1
2022-11-14T08:25:00.816Z,7.1
2022-11-14T08:30:00.800Z,7.2
2022-11-14T08:35:00.919Z,7.3
2022-11-14T08:40:00.809Z,7.3
2022-11-14T08:45:00.767Z,7.4
2022-11-14T08:50:00.793Z,7.5
2022-11-14T08:55:00.799Z,7.5
2022-11-14T09:00:00.858Z,7.5
2022-11-14T09:05:00.831Z,7.6
2022-11-14T09:10:00.800Z,7.7
2022-11-14T09:15:00.850Z,7.6
2022-11-14T09:20:00.829Z,7.7
2022-11-14T09:25:00.751Z,7.8
2022-11-14T09:30:00.786Z,7.7
2022-11-14T09:35:00.743Z,7.7
2022-11-14T09:40:00.780Z,7.7
2022-11-14T09:45:00.780Z,7.7
2022-11-14T09:50:00.792Z,7.7
2022-11-14T09:55:00.938Z,7.7
2022-11-14T10:00:00.845Z,7.7
2022-11-14T10:05:00.794Z,7.7
2022-11-14T10:10:00.784Z,7.7
2022-11-14T10:15:00.778Z,7.8
2022-11-14T10:20:00.786Z,7.7
2022-11-14T10:25:00.836Z,7.9
2022-11-14T10:30:00.826Z,7.9
2022-11-14T10:35:00.762Z,8
2022-11-14T10:40:00.829Z,8
2022-11-14T10:45:00.797Z,8
2022-11-14T10:50:00.799Z,8.1
2022-11-14T10:55:00.795Z,8.1
2022-11-14T11:00:00.716Z,8.2
2022-11-14T11:05:00.804Z,8.1
2022-11-14T11:10:00.792Z,8.1
2022-11-14T11:15:00.812Z,8.2
2022-11-14T11:20:03.955Z,8.2
2022-11-14T11:25:00.817Z,8.3
2022-11-14T11:30:00.832Z,8.5
2022-11-14T11:35:00.756Z,8.6
2022-11-14T11:40:00.767Z,8.6
2022-11-14T11:45:00.749Z,8.6
2022-11-14T11:50:00.813Z,8.6
2022-11-14T11:55:00.688Z,8.8
2022-11-14T12:00:00.813Z,8.8
2022-11-14T12:05:00.781Z,8.8
2022-11-14T12:10:10.096Z,8.8
2022-11-14T12:15:00.611Z,8.8
2022-11-14T12:20:00.752Z,8.8
2022-11-14T12:25:00.827Z,8.8
2022-11-14T12:30:00.830Z,8.8
2022-11-14T12:35:00.829Z,8.8
2022-11-14T12:40:00.652Z,8.9
2022-11-14T12:45:00.857Z,8.9
2022-11-14T12:50:00.839Z,9
2022-11-14T12:55:00.805Z,9
2022-11-14T13:00:00.868Z,9.1
2022-11-14T13:05:00.828Z,8.9
2022-11-14T13:10:00.811Z,8.8
2022-11-14T13:15:00.761Z,8.8
2022-11-14T13:20:00.816Z,9
2022-11-14T13:25:00.756Z,8.9
2022-11-14T13:30:00.899Z,8.8
2022-11-14T13:35:00.825Z,8.9
2022-11-14T13:40:00.738Z,8.8
2022-11-14T13:45:00.877Z,8.8
2022-11-14T13:50:00.828Z,8.8
2022-11-14T13:55:00.745Z,9.1
2022-11-14T14:00:00.852Z,9.1
2022-11-14T14:05:00.787Z,9.1
2022-11-14T14:10:00.818Z,9.1
2022-11-14T14:15:00.825Z,9.1
2022-11-14T14:20:00.865Z,9.1
2022-11-14T14:25:00.852Z,9
2022-11-14T14:30:00.778Z,9
2022-11-14T14:35:00.844Z,9
2022-11-14T14:40:00.809Z,8.8
2022-11-14T14:45:00.819Z,8.8
2022-11-14T14:50:00.786Z,8.7
2022-11-14T14:55:00.825Z,8.6
2022-11-14T15:00:00.842Z,8.8
2022-11-14T15:05:00.803Z,8.7
2022-11-14T15:10:00.806Z,8.6
2022-11-14T15:15:00.806Z,8.4
2022-11-14T15:20:00.752Z,8.4
2022-11-14T15:25:00.742Z,8.4
2022-11-14T15:30:00.798Z,8.4
2022-11-14T15:35:00.914Z,8.5
2022-11-14T15:40:00.829Z,8.4
2022-11-14T15:45:00.836Z,8.3
2022-11-14T15:50:00.804Z,8.3
2022-11-14T15:55:00.689Z,8.2
2022-11-14T16:00:00.853Z,8.1
2022-11-14T16:05:01.132Z,8
2022-11-14T16:10:00.802Z,8
2022-11-14T16:15:00.827Z,7.9
2022-11-14T16:20:00.847Z,8
2022-11-14T16:25:00.788Z,7.9
2022-11-14T16:30:00.854Z,8
2022-11-14T16:35:00.811Z,7.9
2022-11-14T16:40:00.945Z,7.9
2022-11-14T16:45:00.798Z,7.8
2022-11-14T16:50:00.801Z,7.8
2022-11-14T16:55:00.795Z,7.8
2022-11-14T17:00:00.830Z,7.8
2022-11-14T17:05:00.807Z,7.8
2022-11-14T17:10:00.821Z,7.7
2022-11-14T17:15:00.869Z,7.7
2022-11-14T17:20:00.760Z,7.7
2022-11-14T17:25:00.805Z,7.7
2022-11-14T17:30:00.813Z,7.7
2022-11-14T17:35:00.763Z,7.6
2022-11-14T17:40:00.776Z,7.6
2022-11-14T17:45:00.810Z,7.5
2022-11-14T17:50:00.785Z,7.5
2022-11-14T17:55:00.794Z,7.4
2022-11-14T18:00:00.819Z,7.4
2022-11-14T18:05:00.786Z,7.3
2022-11-14T18:10:00.786Z,7.3
2022-11-14T18:15:00.799Z,7.2
2022-11-14T18:20:00.773Z,7.2
2022-11-14T18:25:04.980Z,7.1
2022-11-14T18:30:13.669Z,7
2022-11-14T18:35:00.803Z,7
2022-11-14T18:40:00.806Z,6.9
2022-11-14T18:45:00.770Z,6.9
2022-11-14T18:50:00.788Z,6.9
2022-11-14T18:55:00.794Z,6.9
2022-11-14T19:00:00.802Z,6.8
2022-11-14T19:05:00.782Z,6.8
2022-11-14T19:10:00.831Z,6.7
2022-11-14T19:15:00.829Z,6.6
2022-11-14T19:20:00.802Z,6.5
2022-11-14T19:25:00.794Z,6.6
2022-11-14T19:30:00.773Z,6.6
2022-11-14T19:35:00.789Z,6.6
2022-11-14T19:40:00.785Z,6.6
2022-11-14T19:45:00.792Z,6.5
2022-11-14T19:50:00.788Z,6.5
2022-11-14T19:55:00.820Z,6.4
2022-11-14T20:00:00.740Z,6.3
2022-11-14T20:05:00.790Z,6.3
2022-11-14T20:10:00.812Z,6.3
2022-11-14T20:15:00.591Z,6.2
2022-11-14T20:20:00.880Z,6.2
2022-11-14T20:25:00.827Z,6.1
2022-11-14T20:30:00.816Z,6.1
2022-11-14T20:35:00.857Z,6.1
2022-11-14T20:40:00.791Z,6
2022-11-14T20:45:00.769Z,6
2022-11-14T20:50:00.807Z,6
2022-11-14T20:55:00.768Z,6
2022-11-14T21:00:00.800Z,5.9
2022-11-14T21:05:00.818Z,5.9
2022-11-14T21:10:00.821Z,5.9
2022-11-14T21:15:00.837Z,5.9
2022-11-14T21:20:00.817Z,5.8
2022-11-14T21:25:00.742Z,5.9
2022-11-14T21:30:00.761Z,6
2022-11-14T21:35:03.351Z,6
2022-11-14T21:40:00.740Z,5.9
2022-11-14T21:45:00.809Z,5.9
2022-11-14T21:50:01.525Z,5.8
2022-11-14T21:55:00.748Z,5.8
2022-11-14T22:00:00.818Z,5.8
2022-11-14T22:05:00.799Z,5.8
2022-11-14T22:10:00.800Z,5.8
2022-11-14T22:15:00.757Z,5.8
2022-11-14T22:20:00.818Z,5.7
2022-11-14T22:25:00.602Z,5.6
2022-11-14T22:30:00.520Z,5.6
2022-11-14T22:35:00.803Z,5.6
2022-11-14T22:40:00.802Z,5.6
2022-11-14T22:45:00.781Z,5.6
2022-11-14T22:50:00.762Z,5.6
2022-11-14T22:55:00.872Z,5.6
2022-11-14T23:00:00.588Z,5.6
2022-11-14T23:05:00.776Z,5.5
2022-11-14T23:10:00.764Z,5.5
2022-11-14T23:15:00.765Z,5.5
2022-11-14T23:20:00.792Z,5.5
2022-11-14T23:25:00.856Z,5.5
2022-11-14T23:30:00.827Z,5.5
2022-11-14T23:35:00.822Z,5.5
2022-11-14T23:40:00.811Z,5.5
2022-11-14T23:45:00.795Z,5.5
2022-11-14T23:50:00.789Z,5.5
2022-11-14T23:55:00.800Z,5.5
